createdAt,value
2018-04-12T00:02:22.188Z,81.80
2018-04-12T00:04:49.466Z,81.40
2018-04-12T00:07:15.976Z,81.40
2018-04-12T00:09:43.223Z,81.70
2018-04-12T00:12:09.820Z,81.60
2018-04-12T00:14:36.323Z,82.00
2018-04-12T00:17:02.842Z,82.50
2018-04-12T00:19:29.348Z,82.70
2018-04-12T00:21:55.890Z,83.70
2018-04-12T00:24:22.462Z,82.90
2018-04-12T00:26:48.992Z,82.70
2018-04-12T00:29:15.515Z,83.10
2018-04-12T00:31:42.735Z,82.60
2018-04-12T00:34:09.261Z,82.60
2018-04-12T00:36:35.842Z,82.80
2018-04-12T00:39:03.226Z,82.90
2018-04-12T00:41:29.804Z,83.60
2018-04-12T00:43:56.309Z,82.50
2018-04-12T00:46:22.805Z,82.50
2018-04-12T00:48:50.079Z,82.50
2018-04-12T00:51:16.589Z,82.30
2018-04-12T00:53:55.846Z,82.40
2018-04-12T00:56:22.407Z,82.40
2018-04-12T00:58:48.930Z,82.00
2018-04-12T01:01:15.540Z,82.10
2018-04-12T01:03:42.053Z,82.00
2018-04-12T01:06:08.597Z,81.40
2018-04-12T01:08:35.094Z,82.10
2018-04-12T01:11:01.616Z,81.80
2018-04-12T01:13:28.136Z,81.80
2018-04-12T01:15:54.623Z,81.60
2018-04-12T01:18:21.152Z,82.00
2018-04-12T01:20:47.697Z,81.80
2018-04-12T01:23:14.258Z,81.70
2018-04-12T01:25:40.774Z,82.10
2018-04-12T01:28:07.293Z,82.40
2018-04-12T01:30:33.825Z,81.80
2018-04-12T01:33:12.436Z,82.20
2018-04-12T01:35:38.982Z,82.00
2018-04-12T01:38:05.480Z,82.10
2018-04-12T01:40:32.935Z,82.30
2018-04-12T01:42:59.421Z,82.40
2018-04-12T01:45:25.926Z,82.30
2018-04-12T01:47:52.461Z,82.70
2018-04-12T01:50:18.963Z,82.80
2018-04-12T01:52:46.329Z,83.10
2018-04-12T01:55:13.934Z,83.10
2018-04-12T01:57:40.483Z,83.00
2018-04-12T02:00:06.986Z,82.80
2018-04-12T02:02:33.590Z,83.00
2018-04-12T02:05:00.846Z,82.70
2018-04-12T02:07:28.177Z,83.00
2018-04-12T02:09:54.671Z,83.00
2018-04-12T02:12:21.181Z,82.70
2018-04-12T02:14:47.674Z,82.80
2018-04-12T02:17:14.977Z,82.80
2018-04-12T02:19:41.536Z,82.70
2018-04-12T02:22:08.136Z,83.30
2018-04-12T02:24:34.689Z,83.20
2018-04-12T02:27:01.224Z,83.20
2018-04-12T02:29:27.749Z,83.70
2018-04-12T02:31:54.273Z,83.50
2018-04-12T02:34:21.520Z,84.10
2018-04-12T02:36:48.813Z,83.30
2018-04-12T02:39:15.323Z,83.30
2018-04-12T02:41:41.880Z,83.00
2018-04-12T02:44:08.398Z,82.80
2018-04-12T02:46:34.924Z,82.40
2018-04-12T02:49:02.196Z,82.80
2018-04-12T02:51:28.754Z,82.70
2018-04-12T02:53:55.246Z,83.10
2018-04-12T02:56:22.495Z,83.60
2018-04-12T02:58:49.742Z,83.70
2018-04-12T03:01:17.017Z,83.70
2018-04-12T03:03:43.575Z,83.50
2018-04-12T03:06:10.130Z,83.80
2018-04-12T03:08:36.636Z,84.10
2018-04-12T03:11:03.149Z,84.30
2018-04-12T03:13:30.412Z,85.10
2018-04-12T03:15:56.924Z,85.00
2018-04-12T03:18:24.189Z,85.40
2018-04-12T03:20:50.739Z,85.30
2018-04-12T03:23:17.217Z,85.00
2018-04-12T03:25:43.859Z,85.00
2018-04-12T03:28:10.369Z,84.90
2018-04-12T03:30:36.875Z,85.00
2018-04-12T03:33:04.166Z,85.30
2018-04-12T03:35:30.720Z,85.10
2018-04-12T03:37:57.245Z,85.10
2018-04-12T03:40:23.849Z,85.30
2018-04-12T03:42:50.372Z,85.50
2018-04-12T03:45:16.913Z,85.60
2018-04-12T03:47:43.447Z,85.60
2018-04-12T03:50:09.967Z,85.60
2018-04-12T03:52:37.220Z,85.80
2018-04-12T03:55:04.476Z,85.70
2018-04-12T03:57:31.715Z,86.60
2018-04-12T03:59:58.252Z,86.00
2018-04-12T04:02:24.809Z,86.00
2018-04-12T04:04:52.147Z,87.60
2018-04-12T04:07:18.677Z,87.70
2018-04-12T04:09:45.990Z,87.70
2018-04-12T04:12:12.539Z,87.80
2018-04-12T04:14:51.894Z,87.90
2018-04-12T04:17:30.475Z,87.90
2018-04-12T04:20:09.042Z,87.70
2018-04-12T04:22:36.451Z,88.60
2018-04-12T04:25:03.017Z,88.40
2018-04-12T04:27:29.545Z,88.70
2018-04-12T04:29:56.115Z,88.70
2018-04-12T04:32:22.634Z,88.60
2018-04-12T04:34:49.124Z,88.80
2018-04-12T04:37:15.779Z,89.00
2018-04-12T04:39:42.297Z,89.20
2018-04-12T04:42:08.836Z,89.30
2018-04-12T04:44:35.366Z,89.30
2018-04-12T04:47:01.893Z,89.30
2018-04-12T04:49:28.410Z,89.70
2018-04-12T04:51:55.660Z,90.20
2018-04-12T04:54:22.881Z,90.00
2018-04-12T04:56:49.413Z,90.00
2018-04-12T04:59:15.998Z,89.70
2018-04-12T05:01:42.531Z,90.00
2018-04-12T05:04:10.233Z,90.10
2018-04-12T05:06:36.794Z,90.10
2018-04-12T05:09:03.425Z,89.00
2018-04-12T05:11:29.924Z,89.00
2018-04-12T05:13:56.436Z,88.50
2018-04-12T05:16:22.932Z,88.40
2018-04-12T05:18:49.510Z,87.60
2018-04-12T05:21:16.044Z,87.10
2018-04-12T05:23:43.330Z,86.50
2018-04-12T05:26:09.889Z,86.60
2018-04-12T05:28:36.369Z,86.00
2018-04-12T05:31:03.636Z,86.60
2018-04-12T05:33:30.179Z,86.50
2018-04-12T05:35:56.673Z,85.90
2018-04-12T05:38:23.194Z,85.00
2018-04-12T05:40:49.807Z,83.60
2018-04-12T05:43:16.333Z,84.10
2018-04-12T05:45:42.831Z,82.50
2018-04-12T05:48:09.334Z,82.10
2018-04-12T05:50:35.864Z,82.30
2018-04-12T05:53:02.396Z,80.90
2018-04-12T05:55:28.881Z,80.60
2018-04-12T05:57:55.373Z,79.20
2018-04-12T06:00:22.617Z,77.70
2018-04-12T06:02:49.909Z,77.10
2018-04-12T06:05:17.143Z,77.90
2018-04-12T06:07:43.635Z,77.80
2018-04-12T06:10:10.163Z,77.50
2018-04-12T06:12:36.665Z,78.10
2018-04-12T06:15:03.953Z,76.20
2018-04-12T06:17:30.449Z,76.20
2018-04-12T06:19:57.706Z,76.70
2018-04-12T06:22:24.272Z,76.70
2018-04-12T06:24:51.499Z,76.40
2018-04-12T06:27:18.756Z,74.50
2018-04-12T06:29:46.013Z,74.90
2018-04-12T06:32:13.299Z,74.80
2018-04-12T06:34:39.825Z,74.60
2018-04-12T06:37:06.397Z,73.20
2018-04-12T06:39:32.911Z,73.80
2018-04-12T06:41:59.424Z,73.00
2018-04-12T06:44:25.955Z,73.70
2018-04-12T06:46:52.550Z,71.90
2018-04-12T06:49:19.056Z,71.90
2018-04-12T06:51:45.632Z,69.70
2018-04-12T06:54:12.923Z,71.00
2018-04-12T06:56:39.423Z,71.00
2018-04-12T06:59:05.960Z,69.70
2018-04-12T07:01:32.499Z,69.70
2018-04-12T07:03:59.837Z,67.50
2018-04-12T07:06:26.371Z,67.50
2018-04-12T07:08:52.892Z,67.00
2018-04-12T07:11:19.429Z,65.60
2018-04-12T07:13:46.046Z,64.80
2018-04-12T07:16:13.332Z,64.20
2018-04-12T07:18:39.914Z,64.10
2018-04-12T07:21:06.449Z,65.30
2018-04-12T07:23:32.933Z,64.70
2018-04-12T07:25:59.441Z,64.00
2018-04-12T07:28:25.995Z,61.70
2018-04-12T07:30:52.554Z,59.90
2018-04-12T07:33:19.096Z,58.20
2018-04-12T07:35:45.655Z,57.10
2018-04-12T07:38:12.941Z,54.60
2018-04-12T07:40:39.552Z,54.60
2018-04-12T07:43:06.166Z,52.20
2018-04-12T07:45:33.404Z,50.20
2018-04-12T07:48:00.027Z,50.10
2018-04-12T07:50:26.531Z,50.00
2018-04-12T07:52:53.033Z,49.10
2018-04-12T07:55:19.604Z,50.90
2018-04-12T07:57:46.226Z,52.70
2018-04-12T08:00:12.788Z,52.70
2018-04-12T08:02:39.292Z,52.40
2018-04-12T08:05:06.532Z,50.00
2018-04-12T08:07:33.026Z,49.90
2018-04-12T08:09:59.583Z,48.60
2018-04-12T08:12:26.216Z,46.90
2018-04-12T08:14:52.755Z,44.20
2018-04-12T08:17:19.312Z,40.90
2018-04-12T08:19:45.885Z,39.90
2018-04-12T08:22:12.933Z,43.00
2018-04-12T08:24:39.467Z,44.50
2018-04-12T08:27:05.984Z,47.60
2018-04-12T08:29:32.527Z,51.10
2018-04-12T08:31:59.090Z,52.60
2018-04-12T08:34:25.585Z,51.30
2018-04-12T08:36:52.845Z,50.60
2018-04-12T08:39:19.353Z,50.70
2018-04-12T08:41:45.879Z,52.90
2018-04-12T08:44:12.406Z,53.40
2018-04-12T08:46:38.915Z,54.00
2018-04-12T08:49:05.440Z,52.50
2018-04-12T08:51:31.980Z,50.40
2018-04-12T08:53:58.509Z,48.10
2018-04-12T08:56:25.055Z,44.40
2018-04-12T08:58:51.549Z,44.40
2018-04-12T09:01:18.848Z,41.20
2018-04-12T09:03:46.056Z,37.20
2018-04-12T09:06:12.609Z,36.70
2018-04-12T09:08:39.222Z,38.70
2018-04-12T09:11:06.484Z,39.80
2018-04-12T09:13:33.737Z,37.30
2018-04-12T09:16:01.675Z,36.50
2018-04-12T09:18:28.218Z,35.80
2018-04-12T09:20:54.737Z,37.30
2018-04-12T09:23:21.262Z,35.40
2018-04-12T09:25:47.778Z,32.30
2018-04-12T09:28:14.288Z,31.60
2018-04-12T09:30:41.524Z,30.70
2018-04-12T09:33:08.035Z,30.50
2018-04-12T09:35:34.594Z,29.70
2018-04-12T09:38:01.088Z,29.60
2018-04-12T09:40:27.608Z,32.60
2018-04-12T09:42:54.119Z,32.50
2018-04-12T09:45:20.634Z,31.90
2018-04-12T09:47:47.124Z,32.80
2018-04-12T09:50:13.638Z,35.10
2018-04-12T09:52:40.161Z,38.30
2018-04-12T09:55:07.411Z,30.90
2018-04-12T09:57:34.795Z,31.80
2018-04-12T10:00:02.262Z,31.00
2018-04-12T10:02:28.844Z,31.80
2018-04-12T10:05:05.334Z,30.30
2018-04-12T10:07:37.703Z,29.50
2018-04-12T10:10:05.035Z,33.50
2018-04-12T10:12:31.572Z,33.40
2018-04-12T10:14:58.076Z,36.80
2018-04-12T10:17:24.605Z,39.10
2018-04-12T10:19:51.088Z,41.20
2018-04-12T10:22:17.618Z,42.30
2018-04-12T10:24:44.129Z,42.20
2018-04-12T10:27:10.631Z,43.70
2018-04-12T10:29:37.164Z,45.40
2018-04-12T10:32:03.739Z,45.60
2018-04-12T10:34:30.237Z,45.60
2018-04-12T10:36:56.745Z,44.20
2018-04-12T10:39:24.078Z,45.50
2018-04-12T10:41:50.569Z,45.50
2018-04-12T10:44:17.185Z,43.70
2018-04-12T10:46:43.838Z,43.50
2018-04-12T10:49:10.378Z,41.50
2018-04-12T10:51:36.904Z,42.00
2018-04-12T10:54:03.468Z,42.30
2018-04-12T10:56:30.032Z,42.00
2018-04-12T10:58:56.615Z,43.30
2018-04-12T11:01:23.114Z,44.60
2018-04-12T11:03:49.680Z,45.50
2018-04-12T11:06:16.289Z,46.30
2018-04-12T11:08:42.850Z,47.30
2018-04-12T11:11:09.381Z,48.10
2018-04-12T11:13:35.883Z,49.20
2018-04-12T11:16:02.419Z,49.50
2018-04-12T11:18:28.982Z,49.40
2018-04-12T11:20:55.462Z,50.30
2018-04-12T11:23:21.988Z,50.90
2018-04-12T11:25:48.484Z,51.60
2018-04-12T11:28:15.747Z,52.50
2018-04-12T11:30:42.968Z,52.40
2018-04-12T11:33:09.497Z,52.40
2018-04-12T11:35:36.055Z,52.40
2018-04-12T11:38:02.602Z,52.70
2018-04-12T11:40:29.880Z,53.60
2018-04-12T11:42:56.383Z,53.60
2018-04-12T11:45:22.962Z,54.30
2018-04-12T11:47:49.492Z,56.10
2018-04-12T11:50:16.073Z,55.80
2018-04-12T11:52:42.581Z,57.00
2018-04-12T11:55:09.093Z,56.60
2018-04-12T11:57:35.592Z,58.00
2018-04-12T12:00:02.171Z,58.50
2018-04-12T12:02:28.674Z,58.80
2018-04-12T12:04:55.926Z,57.80
2018-04-12T12:07:22.432Z,57.10
2018-04-12T12:09:48.944Z,57.60
2018-04-12T12:12:15.484Z,57.00
2018-04-12T12:14:42.092Z,56.50
2018-04-12T12:17:08.636Z,56.60
2018-04-12T12:19:35.136Z,56.00
2018-04-12T12:22:01.651Z,56.40
2018-04-12T12:24:28.161Z,57.00
2018-04-12T12:26:55.046Z,57.50
2018-04-12T12:29:21.590Z,57.90
2018-04-12T12:31:48.152Z,57.90
2018-04-12T12:34:14.712Z,58.50
2018-04-12T12:36:41.218Z,58.90
2018-04-12T12:39:07.801Z,59.80
2018-04-12T12:41:34.361Z,59.30
2018-04-12T12:44:00.892Z,59.60
2018-04-12T12:46:27.394Z,59.80
2018-04-12T12:48:53.892Z,60.40
2018-04-12T12:51:21.112Z,61.00
2018-04-12T12:53:47.675Z,61.00
2018-04-12T12:56:14.914Z,60.10
2018-04-12T12:58:41.437Z,60.20
2018-04-12T13:01:07.992Z,60.00
2018-04-12T13:03:35.241Z,60.70
2018-04-12T13:06:01.840Z,60.70
2018-04-12T13:08:28.365Z,60.50
2018-04-12T13:10:54.845Z,61.40
2018-04-12T13:13:21.383Z,63.30
2018-04-12T13:15:47.936Z,64.20
2018-04-12T13:18:15.227Z,65.40
2018-04-12T13:20:41.752Z,65.40
2018-04-12T13:23:08.318Z,66.10
2018-04-12T13:25:34.835Z,68.00
2018-04-12T13:28:01.370Z,69.90
2018-04-12T13:30:27.991Z,73.90
2018-04-12T13:32:54.509Z,74.30
2018-04-12T13:35:21.031Z,74.20
2018-04-12T13:37:48.471Z,75.40
2018-04-12T13:40:15.082Z,77.10
2018-04-12T13:42:41.684Z,78.20
2018-04-12T13:45:08.243Z,79.70
2018-04-12T13:47:34.808Z,81.20
2018-04-12T13:50:01.436Z,80.30
2018-04-12T13:52:28.041Z,80.70
2018-04-12T13:54:54.632Z,83.50
2018-04-12T13:57:21.916Z,84.00
2018-04-12T13:59:49.222Z,87.30
2018-04-12T14:02:15.857Z,87.20
2018-04-12T14:04:42.492Z,85.80
2018-04-12T14:07:09.043Z,86.60
2018-04-12T14:09:35.584Z,85.60
2018-04-12T14:12:02.923Z,85.20
2018-04-12T14:14:29.509Z,85.20
2018-04-12T14:16:56.791Z,89.80
2018-04-12T14:19:23.307Z,89.80
2018-04-12T14:21:49.853Z,90.00
2018-04-12T14:24:16.442Z,90.00
2018-04-12T14:26:42.931Z,90.40
2018-04-12T14:29:09.456Z,92.20
2018-04-12T14:31:35.988Z,91.90
2018-04-12T14:34:02.534Z,91.90
2018-04-12T14:36:29.059Z,91.50
2018-04-12T14:38:55.588Z,91.40
2018-04-12T14:41:22.907Z,91.60
2018-04-12T14:43:49.467Z,91.70
2018-04-12T14:46:16.820Z,91.50
2018-04-12T14:48:44.141Z,92.00
2018-04-12T14:51:10.660Z,92.00
2018-04-12T14:53:37.185Z,93.10
2018-04-12T14:56:03.767Z,92.30
2018-04-12T14:58:30.283Z,92.10
2018-04-12T15:00:56.868Z,92.40
2018-04-12T15:03:23.444Z,92.70
2018-04-12T15:05:50.045Z,92.70
2018-04-12T15:08:17.277Z,93.40
2018-04-12T15:10:43.776Z,93.40
2018-04-12T15:13:10.320Z,93.70
2018-04-12T15:15:36.836Z,94.20
2018-04-12T15:18:03.347Z,94.10
2018-04-12T15:20:29.866Z,94.30
2018-04-12T15:22:57.107Z,93.50
2018-04-12T15:25:24.375Z,93.70
2018-04-12T15:27:51.697Z,94.30
2018-04-12T15:30:18.258Z,94.30
2018-04-12T15:32:45.509Z,93.60
2018-04-12T15:35:12.028Z,93.60
2018-04-12T15:37:38.873Z,92.90
2018-04-12T15:40:05.425Z,93.40
2018-04-12T15:42:32.652Z,94.40
2018-04-12T15:44:59.177Z,94.40
2018-04-12T15:47:25.759Z,94.30
2018-04-12T15:49:53.005Z,94.70
2018-04-12T15:52:20.777Z,95.20
2018-04-12T15:54:47.302Z,95.10
2018-04-12T15:57:14.568Z,94.30
2018-04-12T15:59:41.113Z,94.40
2018-04-12T16:02:07.618Z,94.70
2018-04-12T16:04:34.185Z,94.70
2018-04-12T16:07:00.725Z,94.80
2018-04-12T16:09:27.288Z,95.10
2018-04-12T16:11:53.857Z,95.10
2018-04-12T16:14:20.462Z,95.50
2018-04-12T16:16:47.656Z,95.50
2018-04-12T16:19:14.222Z,95.40
2018-04-12T16:21:40.765Z,95.70
2018-04-12T16:24:07.249Z,95.30
2018-04-12T16:26:33.832Z,95.00
2018-04-12T16:29:00.408Z,95.10
2018-04-12T16:31:26.883Z,95.30
2018-04-12T16:33:53.416Z,95.40
2018-04-12T16:36:20.689Z,94.90
2018-04-12T16:38:47.276Z,94.90
2018-04-12T16:41:13.884Z,95.80
2018-04-12T16:43:40.380Z,95.80
2018-04-12T16:46:07.711Z,95.40
2018-04-12T16:48:34.252Z,95.30
2018-04-12T16:51:00.859Z,94.20
2018-04-12T16:53:27.331Z,94.60
2018-04-12T16:55:54.625Z,95.30
2018-04-12T16:58:21.105Z,95.30
2018-04-12T17:00:47.665Z,95.70
2018-04-12T17:03:14.982Z,95.50
2018-04-12T17:05:41.535Z,95.40
2018-04-12T17:08:08.072Z,95.60
2018-04-12T17:10:34.577Z,95.60
2018-04-12T17:13:01.138Z,95.80
2018-04-12T17:15:27.687Z,96.10
2018-04-12T17:17:54.995Z,95.70
2018-04-12T17:20:21.513Z,95.70
2018-04-12T17:22:48.042Z,95.40
2018-04-12T17:25:14.539Z,95.10
2018-04-12T17:27:41.661Z,95.30
2018-04-12T17:30:08.884Z,95.40
2018-04-12T17:32:35.560Z,95.40
2018-04-12T17:35:02.100Z,95.30
2018-04-12T17:37:28.653Z,95.00
2018-04-12T17:39:55.199Z,95.30
2018-04-12T17:42:21.773Z,95.70
2018-04-12T17:44:48.273Z,95.50
2018-04-12T17:47:14.791Z,95.00
2018-04-12T17:49:41.318Z,95.60
2018-04-12T17:52:07.853Z,96.20
2018-04-12T17:54:34.450Z,96.30
2018-04-12T17:57:00.969Z,96.00
2018-04-12T17:59:28.285Z,95.90
2018-04-12T18:01:54.844Z,95.80
2018-04-12T18:04:22.142Z,96.30
2018-04-12T18:06:48.674Z,96.30
2018-04-12T18:09:16.137Z,96.50
2018-04-12T18:11:42.704Z,96.50
2018-04-12T18:14:09.261Z,96.60
2018-04-12T18:16:35.858Z,96.90
2018-04-12T18:19:03.008Z,96.70
2018-04-12T18:21:31.798Z,96.80
2018-04-12T18:23:58.333Z,97.00
2018-04-12T18:26:25.154Z,96.70
2018-04-12T18:28:51.833Z,96.90
2018-04-12T18:31:18.490Z,96.90
2018-04-12T18:33:45.037Z,96.80
2018-04-12T18:36:12.426Z,96.90
2018-04-12T18:38:39.017Z,96.90
2018-04-12T18:41:05.632Z,96.90
2018-04-12T18:43:32.190Z,97.00
2018-04-12T18:45:58.730Z,96.50
2018-04-12T18:48:25.238Z,96.60
2018-04-12T18:50:51.797Z,96.80
2018-04-12T18:53:18.341Z,96.90
2018-04-12T18:55:44.866Z,97.10
2018-04-12T18:58:11.455Z,97.00
2018-04-12T19:00:38.010Z,97.10
2018-04-12T19:03:04.577Z,97.00
2018-04-12T19:05:31.083Z,97.10
2018-04-12T19:07:57.655Z,96.90
2018-04-12T19:10:24.168Z,97.00
2018-04-12T19:12:50.674Z,97.00
2018-04-12T19:15:17.217Z,97.00
2018-04-12T19:17:43.750Z,96.70
2018-04-12T19:20:10.280Z,96.40
2018-04-12T19:22:36.843Z,96.40
2018-04-12T19:25:03.489Z,96.30
2018-04-12T19:27:30.023Z,96.30
2018-04-12T19:29:56.561Z,96.40
2018-04-12T19:32:23.065Z,96.10
2018-04-12T19:34:49.612Z,96.10
2018-04-12T19:37:16.167Z,96.20
2018-04-12T19:39:42.765Z,96.40
2018-04-12T19:42:09.350Z,96.60
2018-04-12T19:44:35.965Z,96.70
2018-04-12T19:47:02.495Z,96.80
2018-04-12T19:49:29.052Z,96.90
2018-04-12T19:51:55.561Z,97.20
2018-04-12T19:54:22.730Z,97.30
2018-04-12T19:56:49.279Z,97.30
2018-04-12T19:59:15.892Z,97.40
2018-04-12T20:01:42.536Z,97.40
2018-04-12T20:04:09.096Z,97.60
2018-04-12T20:06:35.719Z,97.70
2018-04-12T20:09:02.418Z,97.70
2018-04-12T20:11:28.968Z,97.80
2018-04-12T20:13:55.576Z,97.70
2018-04-12T20:16:22.109Z,97.80
2018-04-12T20:18:49.962Z,97.60
2018-04-12T20:21:16.481Z,97.50
2018-04-12T20:23:42.999Z,97.30
2018-04-12T20:26:10.261Z,97.70
2018-04-12T20:28:36.782Z,97.40
2018-04-12T20:31:03.354Z,97.40
2018-04-12T20:33:30.003Z,97.40
2018-04-12T20:35:57.320Z,97.70
2018-04-12T20:38:24.053Z,97.70
2018-04-12T20:40:50.589Z,97.90
2018-04-12T20:43:17.124Z,98.10
2018-04-12T20:45:43.633Z,98.30
2018-04-12T20:48:10.195Z,98.30
2018-04-12T20:50:40.731Z,98.30
2018-04-12T20:53:12.559Z,98.40
2018-04-12T20:55:39.097Z,98.50
2018-04-12T20:58:05.630Z,98.50
2018-04-12T21:00:32.304Z,98.40
2018-04-12T21:02:58.821Z,98.40
2018-04-12T21:05:25.336Z,98.80
2018-04-12T21:07:51.894Z,98.40
2018-04-12T21:10:18.488Z,98.40
2018-04-12T21:12:45.879Z,98.30
2018-04-12T21:15:12.472Z,98.40
2018-04-12T21:17:39.015Z,98.40
2018-04-12T21:20:05.611Z,98.50
2018-04-12T21:22:32.936Z,98.70
2018-04-12T21:24:59.460Z,98.70
2018-04-12T21:27:26.044Z,98.80
2018-04-12T21:29:52.575Z,98.80
2018-04-12T21:32:19.091Z,98.70
2018-04-12T21:34:45.629Z,98.60
2018-04-12T21:37:12.160Z,98.70
2018-04-12T21:39:38.732Z,98.80
2018-04-12T21:42:05.263Z,98.80
2018-04-12T21:44:31.814Z,98.90
2018-04-12T21:46:58.348Z,99.00
2018-04-12T21:49:24.867Z,99.00
2018-04-12T21:51:51.451Z,98.90
2018-04-12T21:54:18.747Z,99.20
2018-04-12T21:56:45.257Z,99.20
2018-04-12T21:59:11.831Z,99.20
2018-04-12T22:01:39.156Z,99.20
2018-04-12T22:04:05.732Z,99.50
2018-04-12T22:06:32.333Z,99.10
2018-04-12T22:08:58.837Z,99.10
2018-04-12T22:11:26.138Z,99.40
2018-04-12T22:13:52.652Z,99.50
2018-04-12T22:16:19.269Z,99.60
2018-04-12T22:18:45.856Z,99.60
2018-04-12T22:21:12.462Z,99.70
2018-04-12T22:23:38.992Z,99.80
2018-04-12T22:26:05.507Z,99.80
2018-04-12T22:28:32.754Z,99.90
2018-04-12T22:30:59.275Z,99.90
2018-04-12T22:33:25.797Z,99.90
2018-04-12T22:35:52.316Z,99.90
2018-04-12T22:38:18.841Z,99.90
2018-04-12T22:40:46.259Z,99.90
2018-04-12T22:43:12.780Z,99.90
2018-04-12T22:45:39.314Z,99.90
2018-04-12T22:48:05.888Z,99.90
2018-04-12T22:50:32.458Z,99.90
2018-04-12T22:52:59.008Z,99.90
2018-04-12T22:55:25.500Z,99.90
2018-04-12T22:57:51.999Z,99.90
2018-04-12T23:00:18.626Z,99.90
2018-04-12T23:02:45.152Z,99.90
2018-04-12T23:05:11.692Z,99.90
2018-04-12T23:07:38.211Z,99.90
2018-04-12T23:10:05.520Z,99.90
2018-04-12T23:12:32.867Z,99.90
2018-04-12T23:14:59.430Z,99.90
2018-04-12T23:17:25.964Z,99.90
2018-04-12T23:19:52.481Z,99.90
2018-04-12T23:22:19.737Z,99.90
2018-04-12T23:24:47.061Z,99.90
2018-04-12T23:27:13.575Z,99.90
2018-04-12T23:29:40.116Z,99.90
2018-04-12T23:32:06.620Z,99.90
2018-04-12T23:34:33.129Z,99.90
2018-04-12T23:37:00.376Z,99.90
2018-04-12T23:39:27.660Z,99.90
2018-04-12T23:41:54.287Z,99.90
2018-04-12T23:44:20.808Z,99.90
2018-04-12T23:46:48.051Z,99.90
2018-04-12T23:49:14.559Z,99.90
2018-04-12T23:51:41.778Z,99.90
2018-04-12T23:54:08.280Z,99.90
2018-04-12T23:56:34.799Z,99.90
2018-04-12T23:59:01.311Z,99.90
